createdAt,value
2022-12-24T09:54:35.695Z,100.00
2022-12-24T09:57:17.387Z,100.00
2022-12-24T09:59:47.726Z,100.00
2022-12-24T10:02:20.030Z,100.00
2022-12-24T10:04:49.461Z,100.00
2022-12-24T10:08:12.053Z,100.00
2022-12-24T10:11:20.043Z,100.00
2022-12-24T10:14:41.600Z,100.00
2022-12-24T10:18:12.247Z,100.00
2022-12-24T10:21:44.769Z,100.00
2022-12-24T10:24:38.105Z,100.00
2022-12-24T10:27:19.177Z,100.00
2022-12-24T10:29:57.430Z,99.22
2022-12-24T10:32:33.084Z,97.60
2022-12-24T10:35:15.340Z,97.50
2022-12-24T10:37:49.927Z,95.89
2022-12-24T10:40:48.490Z,95.14
2022-12-24T10:43:28.242Z,96.33
2022-12-24T10:46:37.829Z,94.04
2022-12-24T10:49:17.761Z,93.10
2022-12-24T10:52:10.548Z,92.18
2022-12-24T10:54:40.513Z,92.45
2022-12-24T10:57:26.955Z,90.73
2022-12-24T10:59:56.585Z,91.60
2022-12-24T11:02:37.003Z,90.03
2022-12-24T11:05:27.648Z,89.04
2022-12-24T11:08:21.341Z,89.16
2022-12-24T11:11:21.157Z,88.21
2022-12-24T11:13:51.237Z,86.61
2022-12-24T11:16:36.572Z,88.08
2022-12-24T11:19:15.746Z,87.76
2022-12-24T11:21:43.585Z,89.02
2022-12-24T11:24:13.670Z,88.85
2022-12-24T11:26:44.653Z,87.62
2022-12-24T11:29:27.089Z,90.58
2022-12-24T11:32:31.161Z,90.11
2022-12-24T11:35:28.802Z,91.03
2022-12-24T11:38:07.669Z,90.50
2022-12-24T11:40:48.524Z,91.62
2022-12-24T11:43:22.102Z,92.58
2022-12-24T11:45:57.933Z,91.86
2022-12-24T11:48:33.134Z,92.58
2022-12-24T11:51:17.904Z,93.05
2022-12-24T11:54:07.996Z,91.16
2022-12-24T11:56:52.283Z,93.22
2022-12-24T11:59:43.910Z,92.77
2022-12-24T12:02:33.558Z,94.00
2022-12-24T12:05:21.374Z,94.34
2022-12-24T12:07:56.338Z,95.71
2022-12-24T12:10:33.854Z,95.20
2022-12-24T12:13:15.712Z,94.88
2022-12-24T12:16:26.576Z,96.33
2022-12-24T12:19:08.739Z,96.84
2022-12-24T12:21:47.356Z,97.58
2022-12-24T12:24:32.385Z,97.20
2022-12-24T12:27:44.127Z,95.98
2022-12-24T12:30:20.555Z,96.60
2022-12-24T12:33:23.532Z,95.69
2022-12-24T12:35:51.545Z,96.51
2022-12-24T12:38:29.257Z,96.26
2022-12-24T12:42:07.654Z,99.78
2022-12-24T12:45:30.937Z,100.00
2022-12-24T12:49:00.272Z,100.00
2022-12-24T12:52:35.248Z,100.00
2022-12-24T12:55:32.713Z,100.00
2022-12-24T12:58:37.629Z,100.00
2022-12-24T13:01:40.148Z,100.00
2022-12-24T13:05:06.325Z,100.00
2022-12-24T13:08:03.291Z,100.00
2022-12-24T13:11:25.023Z,100.00
2022-12-24T13:14:44.386Z,100.00
2022-12-24T13:18:18.787Z,100.00
2022-12-24T13:20:51.843Z,100.00
2022-12-24T13:23:26.395Z,100.00
2022-12-24T13:25:58.710Z,100.00
2022-12-24T13:28:25.745Z,100.00
2022-12-24T13:31:02.068Z,100.00
2022-12-24T13:33:38.030Z,100.00
2022-12-24T13:36:16.857Z,100.00
2022-12-24T13:38:57.790Z,100.00
2022-12-24T13:41:39.279Z,100.00
2022-12-24T13:44:13.540Z,100.00
2022-12-24T13:47:13.054Z,100.00
2022-12-24T13:49:51.318Z,100.00
2022-12-24T13:52:32.002Z,100.00
2022-12-24T13:55:15.362Z,100.00
2022-12-24T13:58:05.865Z,100.00
2022-12-24T14:01:00.500Z,100.00
2022-12-24T14:03:59.810Z,100.00
2022-12-24T14:06:40.208Z,100.00
2022-12-24T14:09:25.061Z,100.00
2022-12-24T14:12:04.547Z,100.00
2022-12-24T14:14:41.061Z,100.00
2022-12-24T14:17:29.751Z,100.00
2022-12-24T14:20:01.887Z,100.00
2022-12-24T14:22:39.070Z,100.00
2022-12-24T14:25:32.863Z,100.00
2022-12-24T14:28:15.203Z,100.00
2022-12-24T14:30:42.507Z,100.00
2022-12-24T14:33:35.086Z,100.00
2022-12-24T14:36:03.258Z,100.00
2022-12-24T14:38:31.136Z,100.00
2022-12-24T14:41:51.535Z,100.00
2022-12-24T14:45:25.352Z,100.00
2022-12-24T14:48:42.730Z,100.00
2022-12-24T14:51:59.114Z,100.00
2022-12-24T14:54:43.992Z,100.00
2022-12-24T14:57:11.098Z,100.00
2022-12-24T15:00:02.232Z,100.00
2022-12-24T15:02:52.504Z,100.00
2022-12-24T15:05:29.649Z,100.00
2022-12-24T15:08:19.289Z,100.00
2022-12-24T15:10:54.457Z,100.00
2022-12-24T15:13:38.870Z,100.00
2022-12-24T15:16:14.088Z,100.00
2022-12-24T15:19:01.293Z,100.00
2022-12-24T15:21:43.994Z,100.00
2022-12-24T15:24:43.487Z,100.00
2022-12-24T15:27:26.630Z,100.00
2022-12-24T15:29:58.327Z,100.00
2022-12-24T15:32:26.010Z,100.00
2022-12-24T15:34:56.000Z,100.00
2022-12-24T15:37:31.275Z,100.00
2022-12-24T15:40:23.987Z,100.00
2022-12-24T15:42:52.324Z,100.00
2022-12-24T15:45:32.138Z,100.00
2022-12-24T15:48:09.949Z,100.00
2022-12-24T15:50:50.139Z,100.00
2022-12-24T15:53:37.254Z,100.00
2022-12-24T15:56:36.678Z,100.00
2022-12-24T15:59:15.988Z,100.00
2022-12-24T16:01:45.821Z,100.00
2022-12-24T16:04:27.722Z,100.00
2022-12-24T16:07:03.124Z,100.00
2022-12-24T16:09:45.792Z,100.00
2022-12-24T16:12:24.530Z,100.00
2022-12-24T16:15:00.476Z,100.00
2022-12-24T16:17:33.952Z,100.00
2022-12-24T16:20:16.553Z,100.00
2022-12-24T16:22:47.878Z,100.00
2022-12-24T16:25:30.646Z,100.00
2022-12-24T16:28:00.615Z,100.00
2022-12-24T16:30:28.441Z,100.00
2022-12-24T16:32:55.755Z,100.00
2022-12-24T16:35:33.458Z,100.00
2022-12-24T16:38:00.784Z,100.00
2022-12-24T16:40:28.428Z,100.00
2022-12-24T16:43:16.418Z,100.00
2022-12-24T16:45:46.501Z,100.00
2022-12-24T16:48:25.661Z,100.00
2022-12-24T16:50:54.167Z,100.00
2022-12-24T16:53:23.268Z,100.00
2022-12-24T16:55:51.845Z,100.00
2022-12-24T16:58:20.417Z,100.00
2022-12-24T17:00:48.222Z,100.00
2022-12-24T17:03:15.775Z,100.00
2022-12-24T17:05:45.094Z,100.00
2022-12-24T17:08:13.586Z,100.00
2022-12-24T17:10:49.338Z,100.00
2022-12-24T17:13:16.644Z,100.00
2022-12-24T17:15:43.971Z,100.00
2022-12-24T17:18:11.306Z,100.00
2022-12-24T17:20:38.599Z,100.00
